Time;durP1;ratioP1;P1;durP2;ratioP2;P2;SDS_P1;SDS_P2;PMS_P1;PMS_P2;Temp;Humidity;BMP_temperature;BMP_pressure;BME280_temperature;BME280_humidity;BME280_pressure;Samples;Min_cycle;Max_cycle;Signal;HPM_P1;HPM_P2
2022/04/26 03:38:16;;;;;;;1.23;0.43;;;14.40;51.50;;;;;;5157945;27;20042;-72
2022/04/26 03:40:42;;;;;;;1.77;0.60;;;14.40;51.50;;;;;;5176670;27;20394;-71
2022/04/26 03:43:07;;;;;;;0.88;0.40;;;14.30;51.40;;;;;;5157923;27;20034;-71
2022/04/26 03:45:33;;;;;;;1.52;0.70;;;14.30;51.50;;;;;;5157496;27;20081;-70
2022/04/26 03:47:59;;;;;;;2.08;0.70;;;14.30;51.50;;;;;;5176537;27;20045;-70
2022/04/26 03:50:24;;;;;;;2.95;0.70;;;14.30;51.60;;;;;;5158036;27;20034;-67
2022/04/26 03:52:53;;;;;;;0.85;0.55;;;14.30;51.60;;;;;;5157860;27;20504;-70
2022/04/26 03:55:21;;;;;;;1.45;0.60;;;14.30;51.60;;;;;;5157922;27;20090;-71
2022/04/26 03:57:46;;;;;;;1.67;0.50;;;14.30;51.60;;;;;;5157858;27;20046;-72
2022/04/26 04:00:12;;;;;;;1.13;0.50;;;14.30;51.60;;;;;;5175680;27;20113;-70
2022/04/26 04:02:38;;;;;;;1.85;0.70;;;14.30;51.70;;;;;;5157293;27;20430;-65
2022/04/26 04:05:04;;;;;;;1.15;0.60;;;14.30;51.60;;;;;;5176098;27;20047;-71
2022/04/26 04:07:30;;;;;;;1.52;0.70;;;14.30;51.70;;;;;;5157554;27;20034;-71
2022/04/26 04:09:56;;;;;;;1.67;0.88;;;14.30;51.70;;;;;;5176150;27;20034;-71
2022/04/26 04:12:21;;;;;;;1.92;0.60;;;14.30;51.60;;;;;;5157596;27;20038;-72
2022/04/26 04:14:47;;;;;;;2.92;0.77;;;14.30;51.70;;;;;;5157262;27;20046;-69
2022/04/26 04:17:13;;;;;;;1.15;0.63;;;14.30;51.70;;;;;;5157151;27;20042;-70
2022/04/26 04:19:38;;;;;;;5.05;1.67;;;14.30;51.70;;;;;;5157461;27;20094;-70
2022/04/26 04:22:05;;;;;;;1.20;0.60;;;14.30;51.70;;;;;;5157106;27;20485;-71
2022/04/26 04:24:30;;;;;;;1.40;0.70;;;14.20;51.70;;;;;;5157106;27;20045;-70
2022/04/26 04:26:56;;;;;;;2.20;0.68;;;14.20;51.70;;;;;;5175832;27;20038;-66
2022/04/26 04:29:22;;;;;;;0.80;0.40;;;14.20;51.70;;;;;;5156199;27;20121;-70
2022/04/26 04:31:47;;;;;;;0.90;0.50;;;14.20;51.80;;;;;;5157027;27;20113;-71
2022/04/26 04:34:13;;;;;;;2.15;0.60;;;14.20;51.70;;;;;;5157021;27;20034;-65
2022/04/26 04:36:38;;;;;;;3.13;0.77;;;14.20;51.70;;;;;;5157344;27;20553;-71
2022/04/26 04:39:04;;;;;;;1.65;0.80;;;14.20;51.80;;;;;;5156842;27;20070;-71
2022/04/26 04:41:36;;;;;;;2.08;0.73;;;14.20;51.80;;;;;;5157057;27;20070;-71
2022/04/26 04:44:04;;;;;;;1.70;0.60;;;14.20;51.80;;;;;;5156851;27;20046;-70
2022/04/26 04:46:29;;;;;;;2.88;0.60;;;14.20;51.80;;;;;;5156561;27;20116;-72
2022/04/26 04:48:55;;;;;;;1.38;0.50;;;14.20;51.80;;;;;;5156884;27;20038;-71
2022/04/26 04:51:21;;;;;;;1.23;0.50;;;14.20;51.80;;;;;;5156481;27;20446;-65
2022/04/26 04:53:46;;;;;;;1.70;0.55;;;14.20;51.80;;;;;;5156805;27;20034;-71
2022/04/26 04:56:12;;;;;;;1.80;0.73;;;14.20;51.80;;;;;;5175396;27;20077;-66
2022/04/26 04:58:38;;;;;;;1.88;0.75;;;14.20;51.80;;;;;;5175517;27;20038;-65
2022/04/26 05:01:04;;;;;;;1.38;0.60;;;14.20;51.90;;;;;;5175153;27;20094;-67
2022/04/26 05:03:29;;;;;;;1.40;0.70;;;14.20;51.90;;;;;;5156329;27;20417;-70
2022/04/26 05:05:55;;;;;;;2.88;0.60;;;14.20;51.90;;;;;;5156353;27;20035;-65
2022/04/26 05:08:21;;;;;;;1.30;0.60;;;14.20;51.80;;;;;;5175035;27;20473;-70
2022/04/26 05:10:46;;;;;;;2.03;0.90;;;14.20;51.80;;;;;;5156562;27;20082;-70
2022/04/26 05:13:12;;;;;;;2.10;0.68;;;14.20;51.80;;;;;;5174905;27;20121;-70
2022/04/26 05:15:38;;;;;;;4.90;0.77;;;14.20;51.80;;;;;;5156167;27;20474;-69
2022/04/26 05:18:05;;;;;;;1.38;0.55;;;14.20;51.90;;;;;;5156143;27;20046;-70
2022/04/26 05:20:31;;;;;;;1.38;0.52;;;14.20;51.90;;;;;;5174309;27;20073;-71
2022/04/26 05:25:43;;;;;;;2.10;0.75;;;14.20;51.90;;;;;;5155792;27;20409;-71
2022/04/26 05:28:09;;;;;;;2.63;0.70;;;14.20;51.80;;;;;;5154212;27;20485;-70
2022/04/26 05:30:35;;;;;;;1.15;0.60;;;14.20;51.80;;;;;;5155639;27;20089;-69
2022/04/26 05:33:01;;;;;;;1.25;0.50;;;14.20;51.90;;;;;;5156196;27;20393;-65
2022/04/26 05:35:26;;;;;;;1.77;0.63;;;14.20;51.90;;;;;;5174419;27;20042;-69
2022/04/26 05:37:52;;;;;;;1.60;0.73;;;14.20;51.90;;;;;;5156276;27;20034;-69
2022/04/26 05:40:18;;;;;;;1.90;0.60;;;14.20;51.90;;;;;;5155491;27;20099;-69
2022/04/26 05:42:43;;;;;;;1.70;0.50;;;14.20;51.90;;;;;;5156178;27;20040;-64
2022/04/26 05:45:09;;;;;;;1.70;0.90;;;14.20;51.90;;;;;;5155641;27;20130;-68
2022/04/26 05:47:40;;;;;;;2.42;0.55;;;14.20;51.90;;;;;;5174250;27;20050;-70
2022/04/26 05:50:07;;;;;;;1.83;0.70;;;14.20;51.90;;;;;;5155657;27;20046;-65
2022/04/26 05:52:33;;;;;;;2.97;0.90;;;14.20;51.90;;;;;;5174447;27;20121;-69
2022/04/26 05:55:00;;;;;;;1.30;0.52;;;14.20;51.90;;;;;;5155622;27;20080;-69
2022/04/26 05:57:27;;;;;;;2.35;0.90;;;14.20;51.90;;;;;;5156071;27;20445;-69
2022/04/26 05:59:53;;;;;;;0.95;0.40;;;14.20;51.90;;;;;;5155928;27;20393;-69
2022/04/26 06:02:18;;;;;;;1.98;0.65;;;14.20;51.90;;;;;;5155921;27;20034;-70
2022/04/26 06:04:47;;;;;;;2.30;1.10;;;14.20;51.80;;;;;;5155770;27;20493;-70
2022/04/26 06:07:12;;;;;;;0.90;0.47;;;14.20;51.90;;;;;;5155800;27;20039;-69
2022/04/26 06:09:38;;;;;;;1.80;0.70;;;14.20;51.80;;;;;;5174331;27;20559;-67
2022/04/26 06:12:05;;;;;;;1.45;0.43;;;14.10;51.80;;;;;;5155528;27;20070;-68
2022/04/26 06:14:30;;;;;;;2.10;1.13;;;14.10;51.80;;;;;;5155556;27;20481;-69
2022/04/26 06:16:59;;;;;;;1.60;0.55;;;14.20;51.80;;;;;;5155469;27;20046;-65
2022/04/26 06:19:24;;;;;;;2.08;0.55;;;14.20;51.80;;;;;;5174056;27;20045;-69
2022/04/26 06:21:50;;;;;;;2.22;0.60;;;14.20;51.80;;;;;;5174027;27;20046;-69
2022/04/26 06:24:19;;;;;;;1.67;0.70;;;14.20;51.70;;;;;;5174228;27;20050;-69
2022/04/26 06:26:44;;;;;;;1.95;0.60;;;14.30;51.70;;;;;;5155340;27;20405;-70
2022/04/26 06:29:10;;;;;;;2.45;0.47;;;14.30;51.60;;;;;;5174132;27;20045;-70
2022/04/26 06:31:35;;;;;;;1.60;0.75;;;14.20;51.50;;;;;;5155334;27;20038;-65
2022/04/26 06:34:01;;;;;;;1.90;0.93;;;14.30;51.50;;;;;;5173972;27;20113;-67
2022/04/26 06:36:27;;;;;;;3.00;0.68;;;14.30;52.20;;;;;;5155541;27;20042;-65
2022/04/26 06:38:52;;;;;;;2.65;0.80;;;14.30;51.40;;;;;;5155575;27;20125;-70
2022/04/26 06:41:19;;;;;;;2.42;0.70;;;14.40;51.40;;;;;;5174022;27;20412;-71
2022/04/26 06:43:44;;;;;;;2.72;0.52;;;14.40;51.30;;;;;;5155201;27;20537;-71
2022/04/26 06:46:10;;;;;;;2.00;0.70;;;14.40;51.20;;;;;;5154995;27;20046;-70
2022/04/26 06:48:35;;;;;;;1.02;0.50;;;14.40;51.30;;;;;;5155133;27;20159;-67
2022/04/26 06:51:01;;;;;;;3.13;0.90;;;14.40;51.10;;;;;;5174270;27;20026;-70
2022/04/26 06:53:27;;;;;;;1.67;0.50;;;14.40;51.10;;;;;;5158119;27;20040;-67
2022/04/26 06:55:52;;;;;;;2.50;0.40;;;14.50;51.00;;;;;;5158935;27;20113;-70
2022/04/26 06:58:20;;;;;;;1.40;0.60;;;14.50;51.00;;;;;;5158816;27;20125;-65
2022/04/26 07:00:46;;;;;;;1.88;0.40;;;14.50;50.90;;;;;;5159150;27;20045;-65
2022/04/26 07:03:13;;;;;;;0.95;0.45;;;14.50;50.90;;;;;;5158779;27;20042;-69
2022/04/26 07:05:39;;;;;;;3.22;0.88;;;14.50;50.90;;;;;;5158611;27;20034;-71
2022/04/26 07:08:05;;;;;;;1.70;0.40;;;14.50;50.90;;;;;;5158601;27;20047;-64
2022/04/26 07:10:34;;;;;;;1.48;0.40;;;14.60;50.90;;;;;;5177284;27;20109;-70
2022/04/26 07:13:00;;;;;;;2.03;0.80;;;14.60;50.90;;;;;;5158499;27;20122;-70
2022/04/26 07:15:25;;;;;;;1.55;0.30;;;14.50;50.80;;;;;;5158599;27;20061;-70
2022/04/26 07:17:51;;;;;;;2.50;1.17;;;14.60;50.90;;;;;;5158291;27;20065;-69
2022/04/26 07:20:20;;;;;;;2.38;0.57;;;14.60;50.80;;;;;;5177032;27;20041;-70
2022/04/26 07:22:46;;;;;;;2.17;0.80;;;14.60;50.80;;;;;;5158395;27;20115;-64
2022/04/26 07:25:12;;;;;;;1.80;0.40;;;14.60;50.80;;;;;;5158328;27;20050;-65
2022/04/26 07:27:37;;;;;;;1.27;0.65;;;14.60;50.70;;;;;;5177058;27;20041;-69
2022/04/26 07:30:04;;;;;;;2.63;0.68;;;14.70;50.60;;;;;;5158520;27;20034;-65
2022/04/26 07:35:15;;;;;;;2.75;0.40;;;14.70;50.40;;;;;;5176620;27;20057;-64
2022/04/26 07:37:41;;;;;;;2.80;0.50;;;14.80;50.40;;;;;;5158154;27;20042;-67
2022/04/26 07:40:09;;;;;;;3.85;0.65;;;14.80;50.30;;;;;;5158003;27;20034;-69
2022/04/26 07:42:35;;;;;;;1.55;0.60;;;14.80;50.30;;;;;;5176720;27;20049;-68
2022/04/26 07:45:01;;;;;;;3.40;0.60;;;14.80;50.30;;;;;;5176600;27;20125;-69
2022/04/26 07:47:28;;;;;;;1.75;0.40;;;14.80;50.30;;;;;;5154180;27;20051;-65
2022/04/26 07:49:54;;;;;;;1.20;0.40;;;14.80;50.30;;;;;;5155610;27;20122;-70
2022/04/26 07:52:20;;;;;;;1.98;0.68;;;14.80;50.30;;;;;;5154696;27;20183;-65
2022/04/26 07:54:46;;;;;;;3.00;0.60;;;14.80;50.30;;;;;;5154508;27;20046;-70
2022/04/26 07:57:12;;;;;;;2.05;0.75;;;14.70;50.30;;;;;;5154281;27;20042;-68
2022/04/26 07:59:41;;;;;;;1.90;0.80;;;14.80;50.30;;;;;;5154165;27;20042;-69
2022/04/26 08:02:07;;;;;;;3.33;0.80;;;14.80;50.30;;;;;;5153598;27;20051;-70
2022/04/26 08:04:33;;;;;;;2.88;0.55;;;14.80;50.30;;;;;;5153839;27;20043;-64
2022/04/26 08:07:02;;;;;;;2.28;0.68;;;14.70;50.30;;;;;;5154034;27;20031;-70
2022/04/26 08:09:28;;;;;;;2.55;0.77;;;14.90;50.30;;;;;;5153915;27;20041;-64
2022/04/26 08:11:53;;;;;;;2.33;0.95;;;14.70;50.20;;;;;;5154017;27;20034;-70
2022/04/26 08:14:20;;;;;;;1.70;0.60;;;14.70;50.20;;;;;;5153868;27;20142;-65
2022/04/26 08:16:46;;;;;;;2.45;0.43;;;14.70;50.20;;;;;;5154179;27;20035;-65
2022/04/26 08:19:12;;;;;;;2.28;0.50;;;14.80;50.20;;;;;;5153781;27;20494;-69
2022/04/26 08:21:38;;;;;;;3.72;0.57;;;14.80;50.10;;;;;;5153712;27;20034;-69
2022/04/26 08:29:35;;;;;;;2.33;0.50;;;14.90;49.90;;;;;;5153398;27;20047;-64
2022/04/26 08:32:01;;;;;;;0.90;0.50;;;14.90;49.70;;;;;;5153774;27;20039;-68
2022/04/26 08:34:28;;;;;;;1.80;0.73;;;15.00;49.50;;;;;;5153731;27;20062;-69
2022/04/26 08:36:53;;;;;;;1.00;0.45;;;15.10;49.30;;;;;;5153681;27;20091;-69
2022/04/26 08:39:21;;;;;;;3.03;0.40;;;15.10;49.10;;;;;;5154746;27;20573;-69
2022/04/26 08:41:47;;;;;;;1.40;0.60;;;15.20;49.00;;;;;;5153350;27;20119;-67
2022/04/26 08:44:12;;;;;;;1.52;0.52;;;15.20;48.90;;;;;;5153431;27;20034;-65
2022/04/26 08:52:15;;;;;;;2.10;0.38;;;15.20;48.90;;;;;;5154249;27;20066;-64
2022/04/26 08:54:41;;;;;;;2.35;0.80;;;15.20;48.90;;;;;;5153084;27;20512;-64
2022/04/26 08:57:08;;;;;;;1.10;0.70;;;15.20;48.80;;;;;;5152946;27;20043;-64
2022/04/26 08:59:34;;;;;;;1.30;0.43;;;15.30;48.70;;;;;;5154696;27;20434;-66
2022/04/26 09:05:01;;;;;;;1.25;0.80;;;15.40;48.50;;;;;;5129384;27;20376;-67
2022/04/26 09:07:32;;;;;;;2.03;0.50;;;15.60;48.90;;;;;;5129214;28;20039;-68
2022/04/26 09:10:06;;;;;;;;;;;15.70;47.90;;;;;;5129700;28;20032;-64
2022/04/26 09:12:52;;;;;;;1.35;0.50;;;15.80;47.80;;;;;;5129281;28;19915;-69
2022/04/26 09:15:18;;;;;;;1.52;0.40;;;15.80;47.60;;;;;;5128638;28;20075;-68
2022/04/26 09:17:44;;;;;;;0.93;0.50;;;15.80;47.50;;;;;;5128710;28;20078;-67
2022/04/26 09:20:10;;;;;;;2.08;0.52;;;15.80;47.30;;;;;;5128700;28;20039;-66
2022/04/26 09:22:38;;;;;;;1.30;0.50;;;15.80;47.20;;;;;;5128515;28;20032;-68
2022/04/26 09:25:06;;;;;;;2.17;0.50;;;15.80;47.20;;;;;;5128961;28;20048;-62
2022/04/26 09:27:37;;;;;;;2.25;0.55;;;15.80;47.20;;;;;;5128890;28;20089;-63
2022/04/26 09:30:09;;;;;;;2.22;0.50;;;15.80;47.20;;;;;;5128954;28;20115;-62
2022/04/26 09:32:50;;;;;;;3.17;0.40;;;15.80;47.20;;;;;;5111653;28;20092;-69
2022/04/26 09:35:21;;;;;;;1.23;0.40;;;15.80;47.10;;;;;;5128493;28;20035;-67
2022/04/26 09:37:47;;;;;;;1.35;0.80;;;15.80;47.20;;;;;;5128434;28;20067;-66
2022/04/26 09:40:13;;;;;;;1.95;0.40;;;15.80;47.20;;;;;;5128745;28;20074;-65
2022/04/26 09:42:38;;;;;;;1.20;0.57;;;15.80;47.10;;;;;;5128163;28;20071;-69
2022/04/26 09:45:09;;;;;;;1.52;0.50;;;15.80;47.90;;;;;;5128267;28;20031;-67
2022/04/26 09:47:39;;;;;;;1.83;0.65;;;15.80;47.10;;;;;;5129714;27;20070;-67
2022/04/26 09:50:09;;;;;;;2.17;0.50;;;15.80;47.00;;;;;;5128209;28;20037;-68
2022/04/26 09:52:35;;;;;;;1.97;0.30;;;16.00;47.00;;;;;;5123456;28;20073;-67
2022/04/26 09:55:03;;;;;;;2.33;0.60;;;16.00;46.70;;;;;;5107721;28;20040;-64
2022/04/26 09:57:32;;;;;;;1.17;0.68;;;16.00;46.60;;;;;;5108888;28;20043;-62
2022/04/26 09:59:59;;;;;;;0.95;0.70;;;16.00;46.50;;;;;;5108700;28;20103;-67
2022/04/26 10:02:31;;;;;;;2.63;1.15;;;16.10;46.40;;;;;;5107655;28;20035;-68
2022/04/26 10:05:03;;;;;;;1.55;0.55;;;16.10;46.30;;;;;;5107601;28;20106;-64
2022/04/26 10:07:35;;;;;;;2.67;0.63;;;16.20;46.20;;;;;;5107662;28;20039;-70
2022/04/26 10:10:03;;;;;;;2.30;0.40;;;16.30;45.80;;;;;;5107485;28;20066;-62
2022/04/26 10:12:30;;;;;;;0.73;0.32;;;16.50;45.60;;;;;;5108554;28;20475;-68
2022/04/26 10:14:57;;;;;;;1.77;0.60;;;16.50;45.40;;;;;;5100881;28;20036;-67
2022/04/26 10:17:23;;;;;;;1.88;0.55;;;16.50;45.40;;;;;;5093902;28;20119;-63
2022/04/26 10:19:49;;;;;;;1.13;0.40;;;16.40;45.40;;;;;;5093636;28;20116;-64
2022/04/26 10:22:17;;;;;;;1.58;0.40;;;16.40;45.50;;;;;;5094777;28;20089;-68
2022/04/26 10:25:12;;;;;;;1.77;0.57;;;16.40;45.60;;;;;;5094683;28;20044;-67
2022/04/26 10:27:37;;;;;;;2.15;0.80;;;16.40;45.50;;;;;;5093638;28;20418;-67
2022/04/26 10:30:04;;;;;;;2.67;0.50;;;16.40;45.40;;;;;;5094546;28;20043;-62
2022/04/26 10:35:28;;;;;;;2.63;0.68;;;16.50;45.40;;;;;;5129054;27;20135;-68
2022/04/26 10:38:16;;;;;;;2.55;0.50;;;16.50;45.30;;;;;;5129229;28;20050;-64
2022/04/26 10:55:03;;;;;;;2.53;0.60;;;16.50;45.20;;;;;;5129094;27;20132;-63
2022/04/26 11:02:50;;;;;;;1.05;0.52;;;16.50;45.30;;;;;;5146314;27;20139;-68
2022/04/26 11:05:26;;;;;;;1.25;0.30;;;16.50;45.30;;;;;;5128963;27;20482;-62
2022/04/26 11:07:53;;;;;;;1.80;0.80;;;16.40;45.20;;;;;;5129274;28;20087;-69
2022/04/26 11:10:23;;;;;;;1.40;0.40;;;16.40;45.20;;;;;;5129114;28;20039;-70
2022/04/26 11:12:50;;;;;;;1.20;0.65;;;16.40;45.10;;;;;;5129210;28;20114;-68
2022/04/26 11:15:21;;;;;;;0.95;0.40;;;16.40;45.20;;;;;;5128738;28;20123;-68
2022/04/26 11:17:49;;;;;;;2.35;0.45;;;16.40;45.20;;;;;;5129094;28;20130;-68
2022/04/26 11:22:56;;;;;;;1.90;0.32;;;16.40;45.20;;;;;;5129217;27;20139;-62
2022/04/26 11:28:11;;;;;;;1.58;0.68;;;16.40;45.20;;;;;;5130077;28;20194;-68
2022/04/26 11:33:22;;;;;;;1.15;0.35;;;16.40;45.20;;;;;;5146426;27;20155;-68
2022/04/26 11:35:55;;;;;;;1.73;0.53;;;16.40;45.30;;;;;;5128955;28;20047;-66
2022/04/26 11:38:21;;;;;;;1.40;0.50;;;16.30;45.20;;;;;;5129305;28;20285;-68
2022/04/26 11:40:50;;;;;;;1.15;0.40;;;16.40;46.00;;;;;;5129055;28;20566;-63
2022/04/26 11:43:21;;;;;;;1.15;0.80;;;16.30;45.10;;;;;;5129112;28;20076;-68
2022/04/26 11:45:49;;;;;;;0.95;0.40;;;16.30;45.10;;;;;;5128862;28;20047;-68
2022/04/26 11:48:18;;;;;;;1.45;0.50;;;16.30;45.20;;;;;;5128759;28;20082;-68
2022/04/26 11:50:46;;;;;;;0.75;0.40;;;16.30;45.20;;;;;;5129029;28;20104;-69
2022/04/26 11:53:14;;;;;;;2.75;0.50;;;16.40;45.30;;;;;;5128535;28;20486;-63
2022/04/26 11:58:21;;;;;;;1.90;0.50;;;16.30;45.20;;;;;;5146158;27;20499;-63
2022/04/26 12:03:48;;;;;;;1.50;0.50;;;16.30;45.10;;;;;;5142376;27;20492;-62
2022/04/26 12:06:18;;;;;;;1.75;0.60;;;16.30;45.20;;;;;;5109469;28;20047;-69
2022/04/26 12:08:46;;;;;;;2.35;0.52;;;16.30;45.10;;;;;;5115465;28;20116;-68
2022/04/26 12:19:37;;;;;;;3.47;1.52;;;16.30;45.00;;;;;;5127933;27;20491;-69
2022/04/26 12:22:04;;;;;;;9.70;0.85;;;16.50;46.40;;;;;;5126978;28;20043;-68
2022/04/26 12:24:32;;;;;;;5.47;0.52;;;16.50;46.10;;;;;;5128736;28;20023;-69
2022/04/26 12:32:20;;;;;;;5.53;0.57;;;16.60;46.00;;;;;;5146284;27;20136;-70
2022/04/26 12:34:52;;;;;;;2.50;0.60;;;16.60;45.60;;;;;;5128352;28;20207;-63
2022/04/26 12:40:03;;;;;;;1.80;0.40;;;16.60;45.60;;;;;;5129146;27;20491;-65
2022/04/26 12:45:23;;;;;;;2.80;0.57;;;16.50;45.60;;;;;;5191178;27;101066;-70
2022/04/26 12:51:12;;;;;;;1.15;0.40;;;16.50;45.30;;;;;;5192468;27;20042;-67
2022/04/26 12:53:38;;;;;;;1.70;0.28;;;16.50;45.30;;;;;;5174174;27;20124;-64
2022/04/26 12:56:08;;;;;;;1.65;0.50;;;16.50;45.30;;;;;;5192652;27;20093;-71
2022/04/26 12:58:38;;;;;;;1.45;0.40;;;16.50;45.30;;;;;;5173758;27;20041;-71
2022/04/26 13:01:05;;;;;;;1.33;0.57;;;16.50;45.30;;;;;;5173775;27;20476;-71
2022/04/26 13:03:31;;;;;;;1.35;0.30;;;16.50;45.20;;;;;;5192554;27;20400;-71
2022/04/26 13:06:18;;;;;;;2.95;0.50;;;16.50;45.10;;;;;;5192549;27;20081;-70
2022/04/26 13:08:46;;;;;;;1.08;0.35;;;16.50;45.00;;;;;;5173458;27;20073;-70
2022/04/26 13:11:12;;;;;;;2.70;0.40;;;16.50;45.10;;;;;;5173805;27;20052;-71
2022/04/26 13:13:40;;;;;;;1.63;0.57;;;16.50;45.10;;;;;;5173525;27;20121;-71
2022/04/26 13:16:09;;;;;;;1.48;0.50;;;16.50;45.00;;;;;;5173492;27;20508;-71
2022/04/26 13:18:35;;;;;;;1.67;0.45;;;16.50;44.90;;;;;;5173330;27;20548;-71
2022/04/26 13:21:01;;;;;;;1.88;0.30;;;16.50;44.80;;;;;;5173214;27;20048;-71
2022/04/26 13:23:32;;;;;;;2.80;0.40;;;16.50;44.80;;;;;;5173325;27;20041;-70
2022/04/26 13:25:58;;;;;;;1.27;0.50;;;16.50;44.80;;;;;;5173483;27;20469;-71
2022/04/26 13:28:25;;;;;;;1.33;0.60;;;16.50;44.80;;;;;;5191965;27;20033;-71
2022/04/26 13:30:50;;;;;;;2.60;0.30;;;16.50;44.70;;;;;;5191923;27;20041;-67
2022/04/26 13:33:16;;;;;;;1.33;0.32;;;16.50;44.60;;;;;;5191984;27;20041;-65
2022/04/26 13:35:42;;;;;;;2.30;0.40;;;16.50;44.60;;;;;;5172999;27;20038;-65
2022/04/26 13:38:09;;;;;;;1.98;0.40;;;16.50;44.50;;;;;;5173139;27;20117;-71
2022/04/26 13:40:37;;;;;;;0.70;0.28;;;16.50;44.60;;;;;;5172871;27;20113;-71
2022/04/26 13:43:07;;;;;;;0.77;0.40;;;16.40;44.60;;;;;;5172831;27;20168;-72
2022/04/26 13:45:34;;;;;;;0.77;0.30;;;16.40;44.60;;;;;;5172846;27;20148;-71
2022/04/26 13:48:01;;;;;;;1.17;0.30;;;16.40;44.60;;;;;;5173091;27;20086;-71
2022/04/26 13:50:29;;;;;;;1.63;0.40;;;16.50;44.60;;;;;;5191852;27;20046;-67
2022/04/26 13:52:55;;;;;;;0.98;0.40;;;16.50;44.50;;;;;;5172236;27;20042;-71
2022/04/26 13:55:20;;;;;;;0.93;0.52;;;16.50;44.40;;;;;;5164972;27;20030;-71
2022/04/26 13:57:46;;;;;;;1.58;0.45;;;16.50;44.30;;;;;;5159114;27;20117;-67
2022/04/26 14:00:15;;;;;;;2.30;0.50;;;16.60;44.30;;;;;;5158699;27;20465;-71
2022/04/26 14:02:44;;;;;;;1.17;0.68;;;16.60;44.20;;;;;;5158488;27;20038;-68
2022/04/26 14:05:10;;;;;;;1.55;0.43;;;16.60;44.20;;;;;;5158594;27;20090;-71
2022/04/26 14:07:36;;;;;;;1.10;0.60;;;16.60;44.20;;;;;;5158669;27;20458;-71
2022/04/26 14:10:03;;;;;;;1.20;0.50;;;16.60;44.20;;;;;;5158096;27;20042;-68
2022/04/26 14:12:29;;;;;;;0.90;0.43;;;16.60;44.20;;;;;;5158745;27;20117;-66
2022/04/26 14:23:14;;;;;;;1.13;0.60;;;16.60;44.10;;;;;;5157920;27;20057;-71
2022/04/26 14:25:40;;;;;;;1.17;0.30;;;16.60;44.00;;;;;;5158515;27;20034;-72
2022/04/26 14:28:06;;;;;;;1.88;0.30;;;16.60;44.00;;;;;;5176827;27;20466;-64
2022/04/26 14:30:31;;;;;;;1.63;0.40;;;16.60;44.00;;;;;;5158009;27;20038;-71
2022/04/26 14:32:57;;;;;;;0.88;0.40;;;16.60;44.00;;;;;;5158229;27;20122;-72
2022/04/26 14:35:23;;;;;;;1.98;0.40;;;16.60;44.70;;;;;;5157986;27;20036;-75
2022/04/26 14:37:51;;;;;;;1.85;0.50;;;16.60;43.90;;;;;;5157941;27;20042;-67
2022/04/26 14:40:17;;;;;;;0.95;0.30;;;16.60;43.90;;;;;;5158182;27;20426;-64
2022/04/26 14:42:46;;;;;;;0.60;0.30;;;16.60;43.90;;;;;;5140754;27;20038;-68
2022/04/26 14:45:13;;;;;;;0.65;0.35;;;16.70;43.90;;;;;;5157627;27;20058;-73
2022/04/26 14:47:40;;;;;;;0.90;0.43;;;16.70;43.90;;;;;;5157587;27;20516;-71
2022/04/26 14:50:09;;;;;;;1.00;0.50;;;16.70;43.80;;;;;;5157987;27;20045;-72
2022/04/26 14:52:36;;;;;;;0.82;0.30;;;16.70;43.80;;;;;;5157615;27;20053;-67
2022/04/26 14:55:05;;;;;;;1.77;0.60;;;16.70;43.80;;;;;;5176273;27;20101;-71
2022/04/26 14:57:34;;;;;;;1.15;0.50;;;16.70;43.70;;;;;;5176260;27;20173;-71
2022/04/26 15:00:00;;;;;;;1.67;0.40;;;16.70;43.70;;;;;;5157837;27;20069;-66
2022/04/26 15:02:26;;;;;;;1.38;0.52;;;16.70;43.70;;;;;;5157637;27;20053;-72
2022/04/26 15:04:52;;;;;;;0.90;0.40;;;16.70;43.70;;;;;;5157591;27;20038;-64
2022/04/26 15:07:18;;;;;;;1.30;0.40;;;16.70;43.60;;;;;;5156434;27;20045;-70
2022/04/26 15:09:43;;;;;;;2.30;0.40;;;16.70;43.60;;;;;;5157555;27;20026;-65
2022/04/26 15:17:48;;;;;;;1.30;0.38;;;16.70;43.70;;;;;;5175634;27;20074;-71
2022/04/26 15:20:14;;;;;;;0.68;0.47;;;16.60;43.70;;;;;;5157272;27;20120;-70
2022/04/26 15:22:41;;;;;;;1.33;0.50;;;16.70;43.70;;;;;;5175807;27;20393;-71
2022/04/26 15:25:09;;;;;;;2.60;0.40;;;16.70;43.60;;;;;;5156923;27;20065;-70
2022/04/26 15:27:38;;;;;;;0.80;0.40;;;16.70;43.70;;;;;;5157242;27;20074;-72
2022/04/26 15:30:06;;;;;;;1.55;0.50;;;16.70;43.60;;;;;;5156868;27;20075;-72
2022/04/26 15:32:33;;;;;;;1.00;0.40;;;16.70;43.60;;;;;;5157102;27;20080;-72
2022/04/26 15:35:01;;;;;;;1.23;0.47;;;16.70;43.60;;;;;;5156804;27;20497;-71
2022/04/26 15:37:28;;;;;;;1.35;0.43;;;16.70;43.70;;;;;;5156841;27;20090;-72
2022/04/26 15:39:58;;;;;;;1.92;0.45;;;16.70;43.70;;;;;;5156754;27;20434;-71
2022/04/26 15:42:24;;;;;;;1.70;0.47;;;16.70;43.60;;;;;;5156672;27;20095;-64
2022/04/26 15:44:50;;;;;;;0.82;0.30;;;16.70;43.70;;;;;;5174954;27;20109;-68
2022/04/26 15:47:16;;;;;;;1.55;0.50;;;16.70;43.60;;;;;;5175435;27;20042;-71
2022/04/26 15:49:42;;;;;;;1.58;0.50;;;16.70;43.50;;;;;;5156811;27;20161;-65
2022/04/26 15:52:08;;;;;;;2.55;0.60;;;16.80;43.60;;;;;;5175201;27;20034;-71
2022/04/26 15:54:35;;;;;;;1.20;0.40;;;16.70;44.20;;;;;;5156442;27;20086;-66
2022/04/26 15:57:02;;;;;;;1.02;0.30;;;16.70;43.40;;;;;;5156861;27;20493;-71
2022/04/26 15:59:28;;;;;;;0.63;0.30;;;16.80;43.40;;;;;;5175052;27;20496;-71
2022/04/26 16:01:53;;;;;;;1.80;0.50;;;16.80;43.40;;;;;;5156561;27;20030;-64
2022/04/26 16:04:19;;;;;;;1.90;0.50;;;16.80;43.40;;;;;;5156237;27;20397;-71
2022/04/26 16:06:47;;;;;;;1.30;0.55;;;16.80;43.30;;;;;;5156191;27;20038;-71
2022/04/26 16:20:28;;;;;;;1.75;0.55;;;16.70;43.40;;;;;;5156032;27;20049;-71
2022/04/26 16:22:55;;;;;;;1.98;0.40;;;16.70;43.50;;;;;;5174630;27;20117;-66
2022/04/26 16:25:22;;;;;;;0.98;0.40;;;16.70;43.60;;;;;;5156253;27;20099;-64
2022/04/26 16:27:49;;;;;;;1.52;0.50;;;16.60;43.50;;;;;;5156134;27;20070;-70
2022/04/26 16:30:15;;;;;;;1.08;0.60;;;16.60;43.60;;;;;;5174682;27;20374;-71
2022/04/26 16:32:41;;;;;;;0.90;0.40;;;16.60;43.60;;;;;;5155715;27;20046;-71
2022/04/26 16:35:08;;;;;;;1.92;0.50;;;16.60;43.60;;;;;;5155858;27;20049;-71
2022/04/26 16:37:34;;;;;;;0.88;0.40;;;16.60;43.70;;;;;;5156288;27;20538;-66
2022/04/26 16:40:00;;;;;;;1.15;0.40;;;16.50;43.70;;;;;;5156898;27;20053;-72
2022/04/26 16:42:26;;;;;;;0.80;0.43;;;16.50;43.80;;;;;;5156490;27;20038;-71
2022/04/26 16:44:52;;;;;;;1.40;0.60;;;16.50;43.90;;;;;;5155787;27;20390;-72
2022/04/26 16:47:17;;;;;;;0.85;0.52;;;16.50;44.00;;;;;;5155511;27;20049;-71
2022/04/26 16:49:43;;;;;;;2.58;0.80;;;16.50;44.00;;;;;;5174379;27;20045;-71
2022/04/26 16:52:08;;;;;;;1.27;0.55;;;16.40;43.90;;;;;;5155894;27;20189;-64
2022/04/26 16:54:34;;;;;;;1.10;0.40;;;16.40;43.80;;;;;;5155480;27;20446;-71
2022/04/26 16:57:01;;;;;;;0.95;0.40;;;16.40;44.60;;;;;;5174295;27;20121;-70
2022/04/26 16:59:29;;;;;;;1.00;0.40;;;16.40;44.00;;;;;;5155949;27;20038;-71
2022/04/26 17:01:55;;;;;;;1.10;0.35;;;16.40;44.00;;;;;;5155497;27;20363;-70
2022/04/26 17:04:22;;;;;;;0.77;0.40;;;16.40;44.20;;;;;;5174479;27;20042;-71
2022/04/26 17:06:48;;;;;;;1.65;0.45;;;16.30;44.20;;;;;;5155509;27;20034;-71
2022/04/26 17:09:14;;;;;;;1.45;0.50;;;16.30;44.30;;;;;;5155555;27;20068;-71
2022/04/26 17:11:42;;;;;;;0.63;0.32;;;16.20;44.40;;;;;;5174268;27;20036;-71
2022/04/26 17:14:09;;;;;;;0.90;0.57;;;16.20;44.50;;;;;;5155775;27;20117;-71
2022/04/26 17:16:35;;;;;;;1.30;0.50;;;16.20;44.60;;;;;;5174053;27;20084;-71
2022/04/26 17:19:01;;;;;;;1.70;0.60;;;16.10;44.60;;;;;;5155339;27;20503;-71
2022/04/26 17:21:32;;;;;;;1.20;0.55;;;16.10;44.70;;;;;;5155416;27;20046;-72
2022/04/26 17:23:58;;;;;;;3.15;0.52;;;16.10;44.80;;;;;;5155274;27;20034;-71
2022/04/26 17:26:23;;;;;;;1.58;0.50;;;16.10;44.80;;;;;;5174114;27;20041;-70
2022/04/26 17:28:49;;;;;;;1.30;0.47;;;16.10;44.90;;;;;;5155622;27;20373;-64
2022/04/26 17:31:16;;;;;;;1.38;0.50;;;16.00;44.90;;;;;;5176698;27;20560;-70
2022/04/26 17:33:42;;;;;;;1.25;0.40;;;16.00;45.00;;;;;;5159112;27;20046;-71
2022/04/26 17:36:08;;;;;;;1.65;0.43;;;16.00;45.00;;;;;;5159212;27;20046;-71
2022/04/26 17:38:34;;;;;;;1.20;0.50;;;16.00;45.00;;;;;;5159106;27;20038;-71
2022/04/26 17:41:00;;;;;;;2.20;0.50;;;16.00;45.10;;;;;;5159069;27;20042;-71
2022/04/26 17:43:26;;;;;;;1.52;0.40;;;16.00;45.10;;;;;;5177406;27;20085;-71
2022/04/26 17:45:52;;;;;;;1.25;0.40;;;15.90;45.10;;;;;;5177715;27;20049;-71
2022/04/26 17:48:18;;;;;;;1.38;0.30;;;15.90;45.20;;;;;;5159086;27;20046;-71
2022/04/26 17:50:44;;;;;;;1.35;0.40;;;15.90;45.20;;;;;;5177694;27;20170;-71
2022/04/26 17:56:28;;;;;;;1.00;0.50;;;15.80;45.30;;;;;;5177319;27;20050;-70
2022/04/26 17:58:42;;;;;;;1.05;0.40;;;15.80;45.30;;;;;;5158397;27;20045;-71
2022/04/26 18:01:08;;;;;;;2.45;0.60;;;15.80;45.40;;;;;;5158949;27;20034;-71
2022/04/26 18:03:35;;;;;;;1.50;0.65;;;15.80;45.40;;;;;;5158770;27;20041;-70
2022/04/26 18:06:00;;;;;;;0.93;0.35;;;15.70;45.40;;;;;;5159051;27;20042;-71
2022/04/26 18:08:27;;;;;;;1.63;0.60;;;15.70;45.50;;;;;;5176775;27;20438;-65
2022/04/26 18:10:53;;;;;;;1.02;0.50;;;15.70;45.50;;;;;;5158644;27;20046;-66